createdAt,value
2022-08-30T00:02:09.405Z,96562.81
2022-08-30T00:04:36.103Z,96557.50
2022-08-30T00:07:03.748Z,96554.03
2022-08-30T00:09:32.205Z,96553.28
2022-08-30T00:11:58.789Z,96554.81
2022-08-30T00:14:27.478Z,96541.84
2022-08-30T00:16:53.987Z,96548.31
2022-08-30T00:19:20.511Z,96544.50
2022-08-30T00:21:46.999Z,96540.31
2022-08-30T00:24:13.556Z,96538.00
2022-08-30T00:26:40.016Z,96544.88
2022-08-30T00:29:06.500Z,96545.97
2022-08-30T00:31:33.096Z,96539.50
2022-08-30T00:33:59.599Z,96538.34
2022-08-30T00:36:26.516Z,96543.28
2022-08-30T00:38:53.316Z,96540.25
2022-08-30T00:41:19.780Z,96531.84
2022-08-30T00:43:46.384Z,96537.94
2022-08-30T00:46:12.912Z,96510.44
2022-08-30T00:48:44.787Z,96537.13
2022-08-30T00:51:14.422Z,96524.47
2022-08-30T00:53:46.499Z,96539.75
2022-08-30T00:56:13.816Z,96536.28
2022-08-30T00:58:44.268Z,96540.84
2022-08-30T01:01:11.354Z,96535.50
2022-08-30T01:03:39.243Z,96537.03
2022-08-30T01:06:07.567Z,96535.81
2022-08-30T01:08:35.177Z,96534.31
2022-08-30T01:11:03.714Z,96527.47
2022-08-30T01:13:31.562Z,96517.88
2022-08-30T01:16:00.148Z,96529.34
2022-08-30T01:18:27.333Z,96533.91
2022-08-30T01:21:07.320Z,96527.06
2022-08-30T01:23:36.762Z,96530.88
2022-08-30T01:26:06.048Z,96529.31
2022-08-30T01:28:33.574Z,96522.84
2022-08-30T01:31:00.348Z,96527.03
2022-08-30T01:33:27.158Z,96525.09
2022-08-30T01:35:57.407Z,96521.69
2022-08-30T01:38:28.077Z,96530.00
2022-08-30T01:41:08.579Z,96525.38
2022-08-30T01:43:35.260Z,96526.09
2022-08-30T01:46:02.672Z,96534.06
2022-08-30T01:48:31.208Z,96536.66
2022-08-30T01:50:58.854Z,96536.59
2022-08-30T01:53:25.564Z,96535.84
2022-08-30T01:55:52.127Z,96522.91
2022-08-30T01:58:18.562Z,96535.88
2022-08-30T02:00:45.138Z,96539.63
2022-08-30T02:03:11.661Z,96530.88
2022-08-30T02:05:38.214Z,96532.81
2022-08-30T02:08:05.192Z,96536.97
2022-08-30T02:10:32.183Z,96534.66
2022-08-30T02:12:59.452Z,96537.31
2022-08-30T02:15:26.023Z,96536.56
2022-08-30T02:17:52.735Z,96538.06
2022-08-30T02:20:19.546Z,96541.50
2022-08-30T02:22:49.195Z,96531.09
2022-08-30T02:25:20.550Z,96544.47
2022-08-30T02:27:47.986Z,96530.31
2022-08-30T02:30:14.477Z,96542.16
2022-08-30T02:32:41.536Z,96537.19
2022-08-30T02:35:08.436Z,96528.81
2022-08-30T02:37:35.292Z,96522.66
2022-08-30T02:40:01.799Z,96527.31
2022-08-30T02:42:28.346Z,96532.56
2022-08-30T02:44:54.788Z,96527.22
2022-08-30T02:47:21.316Z,96527.16
2022-08-30T02:49:47.831Z,96534.75
2022-08-30T02:52:14.434Z,96537.41
2022-08-30T02:54:41.127Z,96522.13
2022-08-30T02:57:08.895Z,96523.31
2022-08-30T02:59:47.837Z,96521.00
2022-08-30T03:02:15.427Z,96522.50
2022-08-30T03:04:44.223Z,96519.78
2022-08-30T03:07:12.732Z,96522.06
2022-08-30T03:09:39.845Z,96547.16
2022-08-30T03:12:07.795Z,96543.75
2022-08-30T03:14:38.602Z,96540.28
2022-08-30T03:17:12.784Z,96532.28
2022-08-30T03:19:42.707Z,96539.47
2022-08-30T03:22:09.261Z,96532.22
2022-08-30T03:24:35.960Z,96537.91
2022-08-30T03:27:02.794Z,96534.50
2022-08-30T03:29:29.752Z,96544.34
2022-08-30T03:31:57.640Z,96536.81
2022-08-30T03:34:25.584Z,96539.81
2022-08-30T03:36:53.841Z,96532.97
2022-08-30T03:39:21.692Z,96540.19
2022-08-30T03:41:48.224Z,96535.94
2022-08-30T03:44:14.676Z,96540.53
2022-08-30T03:46:41.982Z,96551.88
2022-08-30T03:49:08.825Z,96546.56
2022-08-30T03:51:35.326Z,96555.28
2022-08-30T03:54:02.808Z,96559.09
2022-08-30T03:56:29.421Z,96557.88
2022-08-30T03:58:55.931Z,96560.94
2022-08-30T04:01:22.430Z,96559.84
2022-08-30T04:03:48.965Z,96567.41
2022-08-30T04:06:15.840Z,96573.88
2022-08-30T04:08:43.257Z,96569.63
2022-08-30T04:11:12.854Z,96573.75
2022-08-30T04:13:39.319Z,96565.44
2022-08-30T04:16:06.155Z,96564.53
2022-08-30T04:18:32.682Z,96576.34
2022-08-30T04:20:59.155Z,96574.78
2022-08-30T04:23:25.635Z,96576.34
2022-08-30T04:25:52.089Z,96554.59
2022-08-30T04:28:18.556Z,96575.25
2022-08-30T04:30:45.575Z,96580.97
2022-08-30T04:33:13.765Z,96558.47
2022-08-30T04:35:42.610Z,96572.63
2022-08-30T04:38:10.036Z,96582.16
2022-08-30T04:40:37.081Z,96547.91
2022-08-30T04:43:04.421Z,96567.09
2022-08-30T04:45:31.080Z,96569.78
2022-08-30T04:47:57.606Z,96582.78
2022-08-30T04:50:24.432Z,96569.06
2022-08-30T04:52:51.138Z,96576.00
2022-08-30T04:55:20.198Z,96581.41
2022-08-30T04:57:47.111Z,96580.72
2022-08-30T05:00:14.395Z,96585.75
2022-08-30T05:02:41.887Z,96592.31
2022-08-30T05:05:28.855Z,96586.72
2022-08-30T05:07:55.611Z,96594.41
2022-08-30T05:10:22.591Z,96603.19
2022-08-30T05:12:49.566Z,96599.50
2022-08-30T05:15:16.406Z,96605.22
2022-08-30T05:17:42.905Z,96611.00
2022-08-30T05:20:11.569Z,96609.19
2022-08-30T05:22:40.414Z,96612.34
2022-08-30T05:25:08.209Z,96611.28
2022-08-30T05:27:37.190Z,96608.72
2022-08-30T05:30:06.230Z,96615.63
2022-08-30T05:32:32.829Z,96608.81
2022-08-30T05:34:59.267Z,96608.88
2022-08-30T05:37:25.876Z,96616.53
2022-08-30T05:39:52.431Z,96617.31
2022-08-30T05:42:19.500Z,96618.13
2022-08-30T05:44:46.090Z,96621.25
2022-08-30T05:47:12.559Z,96622.06
2022-08-30T05:49:39.016Z,96624.00
2022-08-30T05:52:06.065Z,96625.19
2022-08-30T05:54:32.525Z,96625.25
2022-08-30T05:56:59.813Z,96624.13
2022-08-30T05:59:26.327Z,96625.50
2022-08-30T06:01:57.239Z,96628.03
2022-08-30T06:04:24.090Z,96636.97
2022-08-30T06:06:50.634Z,96623.22
2022-08-30T06:09:17.644Z,96632.97
2022-08-30T06:11:45.853Z,96636.25
2022-08-30T06:14:13.578Z,96634.94
2022-08-30T06:16:40.723Z,96637.84
2022-08-30T06:19:09.634Z,96637.19
2022-08-30T06:21:37.291Z,96638.28
2022-08-30T06:24:06.641Z,96632.28
2022-08-30T06:26:38.107Z,96628.34
2022-08-30T06:29:04.667Z,96636.44
2022-08-30T06:31:33.388Z,96633.16
2022-08-30T06:34:00.092Z,96628.22
2022-08-30T06:36:27.200Z,96640.84
2022-08-30T06:38:55.804Z,96643.78
2022-08-30T06:41:25.546Z,96637.44
2022-08-30T06:43:52.458Z,96638.63
2022-08-30T06:46:34.731Z,96640.94
2022-08-30T06:49:01.368Z,96645.03
2022-08-30T06:51:31.677Z,96636.25
2022-08-30T06:54:01.872Z,96647.97
2022-08-30T06:56:28.493Z,96635.78
2022-08-30T06:58:55.131Z,96643.63
2022-08-30T07:01:26.790Z,96639.88
2022-08-30T07:03:53.682Z,96632.00
2022-08-30T07:06:20.605Z,96630.06
2022-08-30T07:08:50.008Z,96628.75
2022-08-30T07:11:35.705Z,96636.03
2022-08-30T07:14:06.619Z,96637.44
2022-08-30T07:16:33.479Z,96638.97
2022-08-30T07:19:00.501Z,96644.16
2022-08-30T07:21:34.782Z,96646.94
2022-08-30T07:24:01.717Z,96654.53
2022-08-30T07:26:41.350Z,96653.94
2022-08-30T07:29:09.358Z,96655.63
2022-08-30T07:31:36.280Z,96650.59
2022-08-30T07:34:05.233Z,96658.97
2022-08-30T07:36:32.111Z,96652.94
2022-08-30T07:38:58.817Z,96645.06
2022-08-30T07:41:29.479Z,96653.38
2022-08-30T07:43:57.430Z,96646.41
2022-08-30T07:46:24.824Z,96653.72
2022-08-30T07:48:54.199Z,96644.72
2022-08-30T07:51:23.907Z,96646.59
2022-08-30T07:53:51.382Z,96646.91
2022-08-30T07:56:18.452Z,96650.16
2022-08-30T07:58:45.177Z,96653.09
2022-08-30T08:01:12.892Z,96652.50
2022-08-30T08:03:41.493Z,96652.94
2022-08-30T08:06:09.883Z,96648.66
2022-08-30T08:08:37.273Z,96652.31
2022-08-30T08:11:16.420Z,96653.44
2022-08-30T08:13:53.021Z,96653.25
2022-08-30T08:16:23.133Z,96652.19
2022-08-30T08:18:50.656Z,96648.38
2022-08-30T08:21:17.460Z,96646.19
2022-08-30T08:23:44.304Z,96638.47
2022-08-30T08:26:11.266Z,96652.78
2022-08-30T08:28:37.886Z,96642.75
2022-08-30T08:31:19.280Z,96645.56
2022-08-30T08:33:46.007Z,96641.72
2022-08-30T08:36:13.057Z,96638.03
2022-08-30T08:38:39.554Z,96640.47
2022-08-30T08:41:18.375Z,96641.91
2022-08-30T08:43:44.875Z,96644.38
2022-08-30T08:46:30.098Z,96638.63
2022-08-30T08:49:03.908Z,96642.34
2022-08-30T08:51:55.198Z,96642.63
2022-08-30T08:54:47.051Z,96642.56
2022-08-30T08:57:16.602Z,96633.03
2022-08-30T08:59:45.360Z,96632.78
2022-08-30T09:02:27.463Z,96627.59
2022-08-30T09:07:54.022Z,96628.94
2022-08-30T09:10:47.062Z,96623.47
2022-08-30T09:13:18.890Z,96624.28
2022-08-30T09:15:53.725Z,96627.38
2022-08-30T09:18:50.198Z,96627.34
2022-08-30T09:21:57.960Z,96627.25
2022-08-30T09:24:49.530Z,96629.03
2022-08-30T09:27:41.258Z,96629.88
2022-08-30T09:30:31.094Z,96631.34
2022-08-30T09:33:09.146Z,96629.31
2022-08-30T09:35:44.957Z,96627.13
2022-08-30T09:38:33.610Z,96622.03
2022-08-30T09:41:26.261Z,96619.97
2022-08-30T09:44:22.035Z,96619.09
2022-08-30T09:46:59.411Z,96613.88
2022-08-30T09:49:52.825Z,96616.28
2022-08-30T09:52:26.644Z,96601.94
2022-08-30T09:55:20.970Z,96606.09
